Time;durP1;ratioP1;P1;durP2;ratioP2;P2;SDS_P1;SDS_P2;PMS_P1;PMS_P2;Temp;Humidity;BMP_temperature;BMP_pressure;BME280_temperature;BME280_humidity;BME280_pressure;Samples;Min_cycle;Max_cycle;Signal;HPM_P1;HPM_P2
2021/09/21 00:01:02;;;;;;;16.25;8.15;;;;;;;7.18;98.63;96136.78;4993658;28;20034;-75
2021/09/21 00:03:27;;;;;;;18.05;8.88;;;;;;;7.05;99.10;96133.41;4977336;28;20042;-75
2021/09/21 00:05:53;;;;;;;19.60;9.30;;;;;;;7.10;98.95;96123.03;4990439;28;20062;-75
2021/09/21 00:08:19;;;;;;;18.77;9.48;;;;;;;7.08;98.38;96132.94;4992259;28;20050;-75
2021/09/21 00:10:44;;;;;;;22.48;9.00;;;;;;;7.08;99.25;96135.56;4980462;28;20603;-75
2021/09/21 00:13:10;;;;;;;17.52;9.10;;;;;;;7.01;99.25;96132.28;4988872;28;20043;-76
2021/09/21 00:15:35;;;;;;;23.85;9.00;;;;;;;7.05;99.11;96128.19;4985331;28;20047;-75
2021/09/21 00:18:01;;;;;;;17.40;9.43;;;;;;;7.15;99.42;96132.00;4974903;28;20073;-75
2021/09/21 00:20:27;;;;;;;20.10;9.30;;;;;;;7.14;98.72;96126.00;4996058;28;20054;-76
2021/09/21 00:22:52;;;;;;;21.20;10.20;;;;;;;7.11;99.92;96132.47;4975292;28;20035;-75
2021/09/21 00:25:18;;;;;;;19.50;9.82;;;;;;;7.16;99.78;96133.63;4981938;28;20073;-75
2021/09/21 00:27:45;;;;;;;23.42;10.27;;;;;;;7.21;99.21;96125.84;4979276;28;20039;-75
2021/09/21 00:30:13;;;;;;;52.50;10.75;;;;;;;7.26;99.12;96128.56;4968193;28;20039;-75
2021/09/21 00:32:38;;;;;;;20.42;9.88;;;;;;;7.27;99.91;96114.47;4986501;28;20043;-75
2021/09/21 00:35:04;;;;;;;20.67;9.50;;;;;;;7.19;100.00;96127.91;4991250;28;20085;-75
2021/09/21 00:37:30;;;;;;;21.33;10.10;;;;;;;7.00;100.00;96122.84;4974617;28;20054;-75
2021/09/21 00:39:55;;;;;;;20.10;10.15;;;;;;;7.08;100.00;96121.66;4987453;28;20042;-75
2021/09/21 00:42:28;;;;;;;21.55;10.20;;;;;;;7.13;100.00;96123.63;4989488;28;20046;-75
2021/09/21 00:45:01;;;;;;;19.27;9.85;;;;;;;7.32;100.00;96117.16;4981160;28;20085;-75
2021/09/21 00:47:27;;;;;;;22.95;10.38;;;;;;;7.33;100.00;96117.97;4975597;28;20039;-75
2021/09/21 00:49:52;;;;;;;20.77;10.65;;;;;;;7.40;100.00;96122.03;4999489;28;20049;-75
2021/09/21 00:52:18;;;;;;;25.95;11.68;;;;;;;7.45;100.00;96119.50;4985715;28;20126;-75
2021/09/21 00:54:44;;;;;;;26.10;11.43;;;;;;;7.59;100.00;96127.09;4973886;28;20043;-75
2021/09/21 00:57:11;;;;;;;23.58;11.20;;;;;;;7.67;100.00;96124.09;4991129;28;20108;-75
2021/09/21 00:59:36;;;;;;;25.40;11.32;;;;;;;7.68;100.00;96120.44;4991841;28;20109;-75
2021/09/21 01:02:02;;;;;;;22.92;10.55;;;;;;;7.72;100.00;96121.53;4978519;28;20533;-75
2021/09/21 01:04:29;;;;;;;24.33;10.85;;;;;;;7.77;100.00;96124.25;4993877;28;20222;-75
2021/09/21 01:06:54;;;;;;;25.30;11.85;;;;;;;7.78;100.00;96120.59;4989508;28;20054;-75
2021/09/21 01:09:22;;;;;;;26.92;12.25;;;;;;;7.74;100.00;96114.25;4988015;28;20043;-75
2021/09/21 01:11:52;;;;;;;26.92;11.98;;;;;;;7.77;100.00;96111.16;4990586;28;20049;-75
2021/09/21 01:14:18;;;;;;;23.33;11.38;;;;;;;7.91;100.00;96114.25;5005505;28;20050;-75
2021/09/21 01:16:45;;;;;;;26.50;12.00;;;;;;;7.91;100.00;96108.22;5007191;28;20357;-75
2021/09/21 01:19:12;;;;;;;26.08;11.30;;;;;;;7.94;100.00;96107.75;4992538;28;20042;-75
2021/09/21 01:21:38;;;;;;;28.13;11.93;;;;;;;8.01;100.00;96103.16;4974965;28;20042;-75
2021/09/21 01:24:05;;;;;;;29.02;12.70;;;;;;;8.04;100.00;96107.91;4972120;28;20042;-75
2021/09/21 01:26:31;;;;;;;29.10;13.10;;;;;;;7.98;100.00;96106.25;4995404;28;20089;-75
2021/09/21 01:28:57;;;;;;;26.23;11.75;;;;;;;7.97;100.00;96108.09;4992463;28;20069;-75
2021/09/21 01:31:22;;;;;;;29.73;13.25;;;;;;;7.92;100.00;96115.06;4987588;28;20053;-75
2021/09/21 01:33:50;;;;;;;28.58;12.32;;;;;;;7.94;100.00;96113.00;4994773;28;20056;-75
2021/09/21 01:36:17;;;;;;;28.25;12.45;;;;;;;8.01;100.00;96108.41;4993483;28;20042;-75
2021/09/21 01:38:43;;;;;;;28.40;12.40;;;;;;;8.11;99.87;96108.56;4977890;28;20108;-76
2021/09/21 01:41:09;;;;;;;27.63;12.00;;;;;;;8.09;100.00;96110.63;4974197;28;20496;-75
2021/09/21 01:43:35;;;;;;;27.50;12.25;;;;;;;8.21;99.77;96117.63;4973596;28;20058;-75
2021/09/21 01:46:00;;;;;;;27.92;11.90;;;;;;;8.02;100.00;96115.22;4972473;28;20047;-75
2021/09/21 01:48:26;;;;;;;29.73;12.20;;;;;;;7.99;100.00;96136.69;4976413;28;20042;-75
2021/09/21 01:51:03;;;;;;;29.05;11.98;;;;;;;8.12;100.00;96141.59;4998039;28;20572;-75
2021/09/21 01:58:57;;;;;;;26.40;12.25;;;;;;;8.35;99.77;96150.34;4971665;28;20039;-76
2021/09/21 02:01:25;;;;;;;29.05;12.88;;;;;;;8.32;99.73;96150.84;4982193;28;20039;-76
2021/09/21 02:03:54;;;;;;;25.27;10.93;;;;;;;8.33;99.44;96147.16;4985423;28;20078;-75
2021/09/21 02:06:24;;;;;;;21.15;11.25;;;;;;;8.43;100.00;96146.53;4986169;28;20050;-76
2021/09/21 02:08:50;;;;;;;22.00;10.63;;;;;;;8.55;99.84;96154.34;4990846;28;20042;-75
2021/09/21 02:11:15;;;;;;;24.92;10.93;;;;;;;8.54;100.00;96147.53;5002675;28;20467;-75
2021/09/21 02:13:41;;;;;;;25.38;10.70;;;;;;;8.60;99.61;96146.56;4997298;28;20043;-75
2021/09/21 02:16:07;;;;;;;26.65;12.13;;;;;;;8.76;99.33;96145.72;4991437;28;20043;-75
2021/09/21 02:18:32;;;;;;;22.45;10.90;;;;;;;8.69;98.89;96145.09;4971409;28;20050;-75
2021/09/21 02:20:58;;;;;;;23.27;11.23;;;;;;;8.55;99.84;96143.84;4993949;28;20049;-75
2021/09/21 02:23:24;;;;;;;23.95;11.40;;;;;;;8.45;100.00;96155.78;4996956;28;20046;-75
2021/09/21 02:25:50;;;;;;;21.95;10.93;;;;;;;8.33;100.00;96153.22;4990416;28;20057;-75
2021/09/21 02:28:17;;;;;;;22.02;10.15;;;;;;;8.71;100.00;96147.50;4969901;28;20047;-75
2021/09/21 02:30:42;;;;;;;22.45;10.55;;;;;;;8.83;99.49;96146.38;4972215;28;21037;-75
2021/09/21 02:33:08;;;;;;;23.42;10.57;;;;;;;8.80;99.94;96140.78;4987321;28;20034;-76
2021/09/21 02:35:34;;;;;;;23.55;10.75;;;;;;;8.69;100.00;96134.59;4988263;28;20077;-75
2021/09/21 02:38:00;;;;;;;25.40;10.65;;;;;;;8.52;100.00;96149.56;4988525;28;20045;-75
2021/09/21 02:40:28;;;;;;;22.55;11.27;;;;;;;8.58;100.00;96156.50;4985603;28;20034;-75
2021/09/21 02:42:54;;;;;;;20.83;10.43;;;;;;;8.74;99.79;96158.28;4989601;28;20034;-75
2021/09/21 02:45:20;;;;;;;21.73;10.13;;;;;;;8.91;99.37;96146.97;4988405;28;20053;-75
2021/09/21 02:47:45;;;;;;;20.88;10.40;;;;;;;8.91;99.62;96152.22;4984101;28;20500;-75
2021/09/21 02:50:11;;;;;;;23.92;10.77;;;;;;;8.68;100.00;96164.50;4989854;28;20679;-75
2021/09/21 02:52:38;;;;;;;22.90;10.23;;;;;;;8.60;100.00;96167.53;4990085;28;20385;-75
2021/09/21 02:55:04;;;;;;;22.52;10.18;;;;;;;8.75;100.00;96167.75;4976867;28;20436;-75
2021/09/21 02:57:32;;;;;;;23.50;10.55;;;;;;;8.75;100.00;96170.38;4980019;28;20049;-75
2021/09/21 02:59:58;;;;;;;21.42;10.18;;;;;;;8.66;100.00;96179.69;4988009;28;20433;-75
2021/09/21 03:02:25;;;;;;;19.27;9.27;;;;;;;8.86;100.00;96170.53;4970413;28;20042;-75
2021/09/21 03:04:56;;;;;;;22.20;9.95;;;;;;;8.87;100.00;96172.13;4986143;28;20056;-75
2021/09/21 03:13:13;;;;;;;18.10;9.90;;;;;;;8.75;100.00;96180.88;4970380;28;20054;-75
2021/09/21 03:18:13;;;;;;;21.20;10.00;;;;;;;8.72;100.00;96181.38;4992162;28;20172;-75
2021/09/21 03:20:39;;;;;;;20.52;9.73;;;;;;;8.72;100.00;96191.06;4985952;28;20125;-75
2021/09/21 03:23:05;;;;;;;23.38;10.07;;;;;;;8.70;100.00;96191.28;4976003;28;20049;-75
2021/09/21 03:25:30;;;;;;;18.90;9.43;;;;;;;8.96;100.00;96175.91;4990215;28;20535;-75
2021/09/21 03:27:56;;;;;;;23.25;10.32;;;;;;;8.96;99.92;96178.53;4990761;28;20049;-75
2021/09/21 03:30:21;;;;;;;18.48;9.57;;;;;;;8.86;100.00;96186.28;4975482;28;20050;-75
2021/09/21 03:32:47;;;;;;;19.60;10.20;;;;;;;8.74;100.00;96192.41;4969780;28;20061;-75
2021/09/21 03:35:12;;;;;;;23.00;10.65;;;;;;;8.72;100.00;96194.50;4985871;28;20432;-75
2021/09/21 03:37:38;;;;;;;23.08;10.30;;;;;;;8.91;100.00;96195.00;4985001;28;20049;-75
2021/09/21 03:40:07;;;;;;;18.85;9.27;;;;;;;9.02;100.00;96206.44;4989344;28;20052;-75
2021/09/21 03:42:33;;;;;;;22.73;10.10;;;;;;;8.90;100.00;96193.41;5001215;28;20039;-76
2021/09/21 03:44:58;;;;;;;20.10;9.20;;;;;;;8.91;100.00;96194.22;4990206;28;20045;-75
2021/09/21 03:47:25;;;;;;;18.92;9.55;;;;;;;8.89;100.00;96202.31;4985518;28;20463;-75
2021/09/21 03:49:50;;;;;;;19.77;9.65;;;;;;;8.84;100.00;96205.69;4988573;28;20038;-75
2021/09/21 03:52:16;;;;;;;20.35;9.75;;;;;;;9.01;100.00;96199.63;4987851;28;20072;-75
2021/09/21 03:54:41;;;;;;;24.88;9.80;;;;;;;9.18;99.70;96196.97;4976084;28;20104;-75
2021/09/21 03:57:07;;;;;;;23.60;9.82;;;;;;;9.24;99.84;96203.03;4997261;28;20507;-75
2021/09/21 03:59:32;;;;;;;23.20;10.02;;;;;;;8.97;100.00;96199.28;4994034;28;20034;-75
2021/09/21 04:01:58;;;;;;;21.00;9.68;;;;;;;9.03;100.00;96192.28;4993773;28;20038;-75
2021/09/21 04:04:24;;;;;;;18.63;9.20;;;;;;;9.14;100.00;96198.47;4982195;28;20081;-76
2021/09/21 04:06:49;;;;;;;17.63;8.65;;;;;;;9.10;100.00;96189.50;4990132;28;20050;-76
2021/09/21 04:09:15;;;;;;;20.00;8.98;;;;;;;9.08;99.35;96197.59;4989955;28;20105;-76
2021/09/21 04:11:40;;;;;;;22.75;9.57;;;;;;;9.02;98.08;96195.94;4984664;28;20074;-76
2021/09/21 04:14:06;;;;;;;21.75;10.32;;;;;;;8.91;98.35;96197.63;4980805;28;20038;-76
2021/09/21 04:16:32;;;;;;;21.33;10.30;;;;;;;8.86;98.12;96197.56;4985771;28;20053;-75
2021/09/21 04:18:58;;;;;;;19.90;9.25;;;;;;;8.87;98.49;96208.88;4987267;28;20623;-75
2021/09/21 04:21:24;;;;;;;22.02;10.70;;;;;;;8.77;98.79;96210.28;4970926;28;20047;-76
2021/09/21 04:23:49;;;;;;;22.75;10.30;;;;;;;8.80;98.64;96217.69;4975581;28;20049;-76
2021/09/21 04:26:15;;;;;;;20.13;9.77;;;;;;;8.87;97.74;96214.13;4989797;28;20246;-75
2021/09/21 04:28:41;;;;;;;18.33;9.32;;;;;;;8.77;97.88;96212.91;4973326;28;20043;-76
2021/09/21 04:31:10;;;;;;;21.27;10.30;;;;;;;8.67;97.65;96215.41;4975151;28;20101;-75
2021/09/21 04:33:40;;;;;;;23.98;10.88;;;;;;;8.59;98.59;96213.97;4993441;28;20043;-75
2021/09/21 04:36:08;;;;;;;26.73;11.23;;;;;;;8.61;98.23;96211.13;5004640;28;20504;-75
2021/09/21 04:38:34;;;;;;;22.95;9.95;;;;;;;8.57;98.25;96220.50;4990466;28;20072;-75
2021/09/21 04:41:00;;;;;;;22.38;10.00;;;;;;;8.51;98.54;96221.44;4992100;28;20057;-76
2021/09/21 04:43:25;;;;;;;22.02;10.00;;;;;;;8.48;98.80;96223.50;4991790;28;20046;-75
2021/09/21 04:45:51;;;;;;;21.27;10.32;;;;;;;8.42;98.94;96231.47;4979470;28;20057;-75
2021/09/21 04:48:17;;;;;;;20.42;9.75;;;;;;;8.63;98.64;96230.03;5001540;28;20041;-75
2021/09/21 04:50:42;;;;;;;24.13;10.45;;;;;;;8.61;98.04;96226.84;4972635;28;20513;-75
2021/09/21 04:53:08;;;;;;;22.75;9.25;;;;;;;8.58;98.61;96232.59;4981392;28;20053;-75
2021/09/21 04:55:33;;;;;;;22.90;10.18;;;;;;;8.56;98.32;96239.88;5003611;28;20800;-76
2021/09/21 04:57:59;;;;;;;22.48;10.02;;;;;;;8.59;98.36;96239.41;4991278;28;20524;-75
2021/09/21 05:00:24;;;;;;;23.02;10.10;;;;;;;8.59;98.29;96240.22;4987987;28;20139;-75
2021/09/21 05:02:50;;;;;;;20.33;9.88;;;;;;;8.59;98.96;96249.91;4984601;28;20043;-75
2021/09/21 05:05:16;;;;;;;19.88;9.80;;;;;;;8.64;98.63;96252.59;4983536;28;20409;-75
2021/09/21 05:07:42;;;;;;;19.27;9.65;;;;;;;8.65;98.39;96241.09;4988145;28;20101;-75
2021/09/21 05:10:08;;;;;;;18.13;9.40;;;;;;;8.64;98.57;96247.38;4981007;28;20043;-75
2021/09/21 05:12:34;;;;;;;22.42;9.75;;;;;;;8.58;99.23;96258.81;4977377;28;20513;-75
2021/09/21 05:15:00;;;;;;;22.77;9.88;;;;;;;8.71;99.17;96258.50;4989541;28;20085;-76
2021/09/21 05:17:25;;;;;;;21.58;8.82;;;;;;;8.76;98.21;96261.19;4979942;28;20035;-75
2021/09/21 05:19:51;;;;;;;19.80;9.40;;;;;;;8.60;99.14;96269.84;4987746;28;20038;-75
2021/09/21 05:22:18;;;;;;;17.67;8.30;;;;;;;8.70;99.94;96271.84;4973223;28;20079;-75
2021/09/21 05:24:43;;;;;;;19.88;8.68;;;;;;;8.81;98.34;96271.00;4974641;28;20038;-76
2021/09/21 05:27:09;;;;;;;17.17;8.15;;;;;;;8.97;98.01;96272.00;5001162;28;20097;-76
2021/09/21 05:29:34;;;;;;;16.95;8.90;;;;;;;8.91;98.23;96273.75;4980588;28;20153;-75
2021/09/21 05:32:00;;;;;;;19.73;9.35;;;;;;;8.81;98.61;96274.41;4982617;28;20125;-76
2021/09/21 05:34:26;;;;;;;21.73;8.75;;;;;;;8.94;97.58;96283.00;4985844;28;20045;-75
2021/09/21 05:36:51;;;;;;;15.02;7.97;;;;;;;8.82;97.72;96286.50;4982198;28;20046;-75
2021/09/21 05:39:17;;;;;;;15.93;7.60;;;;;;;8.83;97.98;96293.34;4980123;28;20049;-75
2021/09/21 05:41:43;;;;;;;15.38;7.40;;;;;;;8.99;96.97;96301.44;4984918;28;20034;-75
2021/09/21 05:44:09;;;;;;;13.70;7.40;;;;;;;8.91;96.75;96299.22;4987896;28;20047;-75
2021/09/21 05:46:35;;;;;;;16.25;7.78;;;;;;;8.80;98.06;96298.25;4996609;28;20046;-75
2021/09/21 05:49:01;;;;;;;14.80;7.45;;;;;;;8.80;98.54;96309.53;4998692;28;20049;-75
2021/09/21 05:51:28;;;;;;;12.45;6.82;;;;;;;8.75;98.53;96316.53;5010873;28;20042;-75
2021/09/21 05:53:54;;;;;;;15.52;7.78;;;;;;;8.95;97.65;96310.81;4985645;28;20046;-75
2021/09/21 05:56:21;;;;;;;13.00;6.70;;;;;;;9.08;97.83;96326.28;4987011;28;20096;-75
2021/09/21 05:58:46;;;;;;;14.43;7.32;;;;;;;9.07;98.00;96322.03;4984791;28;20046;-75
2021/09/21 06:01:12;;;;;;;14.10;7.20;;;;;;;8.97;98.11;96314.03;4989623;28;20489;-75
2021/09/21 06:03:37;;;;;;;13.35;7.00;;;;;;;9.09;97.44;96333.09;4985889;28;20041;-75
2021/09/21 06:06:03;;;;;;;13.30;7.15;;;;;;;9.06;97.88;96325.69;4989778;28;20143;-75
2021/09/21 06:08:29;;;;;;;14.95;7.07;;;;;;;9.06;98.04;96338.81;4976117;28;20177;-75
2021/09/21 06:10:55;;;;;;;20.63;7.97;;;;;;;9.13;98.20;96344.72;4972663;28;20054;-75
2021/09/21 06:13:20;;;;;;;14.73;7.03;;;;;;;9.23;97.67;96353.78;4971963;28;20049;-75
2021/09/21 06:15:47;;;;;;;14.32;7.15;;;;;;;9.23;98.00;96353.78;4983999;28;21477;-75
2021/09/21 06:18:14;;;;;;;12.98;7.05;;;;;;;9.27;98.61;96355.69;4995598;28;20040;-75
2021/09/21 06:20:40;;;;;;;14.38;7.47;;;;;;;9.25;99.09;96356.97;5009942;28;20046;-75
2021/09/21 06:23:07;;;;;;;13.55;7.03;;;;;;;9.31;98.89;96361.25;5006319;28;20034;-75
2021/09/21 06:25:33;;;;;;;15.40;7.22;;;;;;;9.30;98.91;96360.47;4971384;28;20043;-75
2021/09/21 06:27:58;;;;;;;14.75;7.28;;;;;;;9.30;99.25;96362.31;4988475;28;20100;-75
2021/09/21 06:30:24;;;;;;;13.52;6.90;;;;;;;9.34;100.00;96363.44;4990118;28;20054;-75
2021/09/21 06:32:49;;;;;;;13.32;7.18;;;;;;;9.33;100.00;96367.88;4987490;28;20051;-75
2021/09/21 06:35:15;;;;;;;13.63;6.72;;;;;;;9.44;99.28;96371.44;4993128;28;20042;-75
2021/09/21 06:37:41;;;;;;;12.23;6.60;;;;;;;9.50;100.00;96380.22;4972982;28;20419;-75
2021/09/21 06:40:08;;;;;;;12.20;7.03;;;;;;;9.66;99.91;96383.84;5006922;28;20100;-75
2021/09/21 06:42:35;;;;;;;13.65;6.82;;;;;;;9.84;98.34;96386.19;4994018;28;20049;-75
2021/09/21 06:45:04;;;;;;;13.73;7.22;;;;;;;9.75;97.59;96377.13;4991258;28;20046;-75
2021/09/21 06:47:30;;;;;;;15.40;6.97;;;;;;;9.79;96.65;96378.25;4990994;28;20046;-74
2021/09/21 06:49:55;;;;;;;17.60;7.53;;;;;;;9.74;97.85;96391.31;4989253;28;20046;-75
2021/09/21 06:52:21;;;;;;;14.07;6.70;;;;;;;9.80;98.60;96374.56;4981447;28;20528;-76
2021/09/21 06:54:47;;;;;;;13.10;6.60;;;;;;;9.87;98.52;96377.03;4994031;28;20041;-77
2021/09/21 06:57:12;;;;;;;14.25;7.07;;;;;;;9.92;98.91;96381.56;4987223;28;20038;-74
2021/09/21 06:59:38;;;;;;;16.00;7.93;;;;;;;9.86;97.70;96383.34;4989992;28;20095;-74
2021/09/21 07:02:03;;;;;;;15.68;7.45;;;;;;;9.98;96.27;96385.84;4994373;28;20052;-74
2021/09/21 07:04:29;;;;;;;16.45;8.10;;;;;;;10.00;96.85;96389.03;4992844;28;20041;-74
2021/09/21 07:06:54;;;;;;;14.00;7.55;;;;;;;10.08;96.63;96391.22;4981445;28;20073;-73
2021/09/21 07:09:20;;;;;;;16.02;7.57;;;;;;;10.06;97.17;96390.69;4986390;28;20138;-74
2021/09/21 07:11:45;;;;;;;15.52;7.18;;;;;;;10.10;96.46;96389.16;5004218;28;20415;-74
2021/09/21 07:14:11;;;;;;;16.60;8.18;;;;;;;10.13;96.35;96388.66;4989603;28;20102;-74
2021/09/21 07:16:37;;;;;;;14.88;7.30;;;;;;;10.14;95.58;96389.47;4987219;28;20049;-74
2021/09/21 07:19:02;;;;;;;15.13;7.95;;;;;;;10.22;94.75;96387.19;4985362;28;20045;-74
2021/09/21 07:21:28;;;;;;;15.32;7.35;;;;;;;10.33;95.04;96387.31;4986594;28;20532;-75
2021/09/21 07:23:54;;;;;;;18.98;7.65;;;;;;;10.35;94.59;96385.28;4982664;28;20045;-74
2021/09/21 07:26:20;;;;;;;15.95;7.50;;;;;;;10.35;94.73;96385.28;4990456;28;20050;-74
2021/09/21 07:28:46;;;;;;;16.77;8.00;;;;;;;10.33;94.56;96382.03;4975905;28;20476;-73
2021/09/21 07:31:11;;;;;;;14.45;7.82;;;;;;;10.27;95.20;96393.56;4983939;28;20046;-74
2021/09/21 07:33:37;;;;;;;20.05;8.00;;;;;;;10.36;94.74;96392.13;4983383;28;20089;-73
2021/09/21 07:36:03;;;;;;;15.13;8.32;;;;;;;10.25;94.87;96398.28;4981598;28;20512;-74
2021/09/21 07:38:29;;;;;;;17.10;7.80;;;;;;;10.52;93.17;96401.00;4979694;28;20539;-74
2021/09/21 07:40:54;;;;;;;16.42;7.85;;;;;;;10.57;92.50;96404.47;4984515;28;20046;-74
2021/09/21 07:43:20;;;;;;;14.63;7.65;;;;;;;10.66;93.19;96411.91;4985472;28;20058;-73
2021/09/21 07:45:45;;;;;;;18.63;9.55;;;;;;;10.72;90.40;96410.94;4985181;28;20070;-74
2021/09/21 07:48:17;;;;;;;14.13;6.75;;;;;;;10.68;93.03;96409.84;4992202;28;20065;-74
2021/09/21 07:50:43;;;;;;;14.90;7.80;;;;;;;10.62;93.17;96410.84;4980459;28;20510;-74
2021/09/21 07:53:08;;;;;;;14.57;8.05;;;;;;;10.52;93.83;96417.56;4976199;28;20065;-74
2021/09/21 07:55:34;;;;;;;14.98;7.90;;;;;;;10.66;92.89;96422.44;4983976;28;20049;-74
2021/09/21 07:58:00;;;;;;;15.82;7.70;;;;;;;10.44;93.63;96425.88;4984517;28;20054;-74
2021/09/21 08:00:27;;;;;;;15.43;7.53;;;;;;;10.63;93.71;96428.19;4981115;28;20598;-72
2021/09/21 08:02:52;;;;;;;16.27;8.43;;;;;;;10.42;94.83;96437.72;4982147;28;20108;-73
2021/09/21 08:05:20;;;;;;;23.55;8.73;;;;;;;10.47;94.45;96446.44;4979071;28;20038;-73
2021/09/21 08:07:46;;;;;;;18.05;8.05;;;;;;;10.62;93.99;96445.06;4980307;28;20433;-74
2021/09/21 08:10:12;;;;;;;16.70;9.25;;;;;;;10.82;92.16;96447.91;4988755;28;20125;-74
2021/09/21 08:12:38;;;;;;;17.63;8.55;;;;;;;10.92;90.56;96453.25;5003937;28;20043;-74
2021/09/21 08:15:05;;;;;;;15.70;7.80;;;;;;;11.04;90.90;96454.97;4988557;28;20097;-74
2021/09/21 08:17:31;;;;;;;16.95;8.25;;;;;;;11.03;91.70;96458.63;4992259;28;20045;-74
2021/09/21 08:19:57;;;;;;;15.23;7.93;;;;;;;11.15;91.84;96464.56;4994814;28;20589;-74
2021/09/21 08:22:23;;;;;;;17.80;7.85;;;;;;;11.27;89.73;96467.81;4984033;28;20463;-74
2021/09/21 08:24:49;;;;;;;14.15;7.72;;;;;;;11.17;90.27;96459.81;4993360;28;20098;-74
2021/09/21 08:27:14;;;;;;;18.02;8.70;;;;;;;11.16;91.37;96466.16;4990710;28;20531;-74
2021/09/21 08:29:40;;;;;;;19.90;9.05;;;;;;;11.40;89.13;96468.47;4993075;28;20874;-74
2021/09/21 08:32:06;;;;;;;19.10;8.80;;;;;;;11.36;89.07;96472.63;4982815;28;20047;-74
2021/09/21 08:34:33;;;;;;;22.48;9.20;;;;;;;11.38;88.02;96470.56;4969228;28;20078;-74
2021/09/21 08:36:58;;;;;;;19.27;9.73;;;;;;;11.41;88.73;96470.06;4987126;28;20042;-74
2021/09/21 08:39:24;;;;;;;21.02;9.55;;;;;;;11.49;88.14;96466.94;4976788;28;20047;-74
2021/09/21 08:41:51;;;;;;;20.33;9.73;;;;;;;11.42;87.96;96471.63;4994049;28;20042;-74
2021/09/21 08:44:18;;;;;;;19.42;10.32;;;;;;;11.48;87.55;96475.91;4977243;28;20042;-74
2021/09/21 08:46:45;;;;;;;24.23;10.63;;;;;;;11.71;86.54;96473.97;4988811;28;20074;-74
2021/09/21 08:49:12;;;;;;;21.70;10.68;;;;;;;11.59;86.15;96476.78;4988344;28;20038;-74
2021/09/21 08:51:38;;;;;;;22.20;9.35;;;;;;;11.87;86.04;96486.22;4993069;28;20496;-74
2021/09/21 08:54:04;;;;;;;23.23;9.45;;;;;;;11.74;88.49;96484.03;4983843;28;20049;-74
2021/09/21 08:56:30;;;;;;;32.78;9.95;;;;;;;11.94;88.81;96486.06;4969130;28;20039;-74
2021/09/21 08:59:04;;;;;;;25.90;12.00;;;;;;;12.03;84.20;96486.38;4989606;28;20053;-74
2021/09/21 09:01:46;;;;;;;24.52;12.20;;;;;;;12.03;85.64;96491.66;4980297;28;20061;-74
2021/09/21 09:04:18;;;;;;;22.42;11.48;;;;;;;12.34;83.77;96492.63;4989766;28;20038;-74
2021/09/21 09:06:47;;;;;;;21.95;11.77;;;;;;;12.35;84.36;96493.41;4982157;28;20047;-74
2021/09/21 09:09:19;;;;;;;24.55;11.52;;;;;;;12.41;82.72;96493.19;4987044;28;20493;-76
2021/09/21 09:11:55;;;;;;;21.75;11.60;;;;;;;12.43;82.32;96492.94;4989168;28;20583;-76
2021/09/21 09:14:32;;;;;;;24.50;11.48;;;;;;;12.48;81.06;96482.38;4978949;28;20084;-76
2021/09/21 09:16:59;;;;;;;25.05;12.30;;;;;;;12.43;81.78;96485.00;4995484;28;20520;-76
2021/09/21 09:19:36;;;;;;;28.77;12.75;;;;;;;12.51;81.42;96491.63;4990898;28;20061;-75
2021/09/21 09:22:17;;;;;;;27.92;12.65;;;;;;;12.61;83.18;96487.22;4989177;28;20109;-76
2021/09/21 09:24:49;;;;;;;26.00;12.77;;;;;;;12.59;82.82;96499.84;4991802;28;20120;-76
2021/09/21 09:27:16;;;;;;;28.65;14.00;;;;;;;12.46;81.97;96495.06;4990110;28;20043;-76
2021/09/21 09:29:52;;;;;;;27.08;12.95;;;;;;;12.71;79.71;96488.28;4989562;28;20050;-76
2021/09/21 09:32:18;;;;;;;26.23;12.80;;;;;;;12.64;80.59;96505.19;4988085;28;20038;-76
2021/09/21 09:34:44;;;;;;;27.17;13.00;;;;;;;13.00;77.03;96499.19;4990263;28;20049;-76
2021/09/21 09:37:10;;;;;;;24.90;13.45;;;;;;;12.87;77.15;96495.19;4983278;28;20050;-76
2021/09/21 09:39:36;;;;;;;25.17;12.98;;;;;;;13.18;75.82;96497.94;4979392;28;20047;-76
2021/09/21 09:42:02;;;;;;;27.13;12.65;;;;;;;13.18;77.37;96495.28;4990662;28;20042;-76
2021/09/21 09:44:30;;;;;;;25.70;12.15;;;;;;;13.25;76.85;96493.19;4999931;28;20042;-76
2021/09/21 09:46:59;;;;;;;25.90;12.23;;;;;;;13.28;78.86;96495.31;4979680;28;20053;-76
2021/09/21 09:49:33;;;;;;;25.10;13.27;;;;;;;13.15;78.89;96498.47;4992239;28;20041;-76
2021/09/21 09:52:08;;;;;;;23.58;12.73;;;;;;;13.21;77.28;96494.75;4971559;28;20094;-76
2021/09/21 09:54:35;;;;;;;28.27;13.68;;;;;;;13.09;78.67;96502.16;4998172;28;20081;-76
2021/09/21 09:57:03;;;;;;;31.45;16.08;;;;;;;12.58;80.12;96508.81;4995198;28;20056;-76
2021/09/21 09:59:29;;;;;;;31.08;17.48;;;;;;;12.42;80.02;96509.81;5010437;28;20045;-76
2021/09/21 10:01:55;;;;;;;31.75;16.15;;;;;;;12.41;80.77;96513.50;5000081;28;20042;-76
2021/09/21 10:04:22;;;;;;;30.02;15.57;;;;;;;12.57;79.70;96501.97;4989191;28;20045;-75
2021/09/21 10:06:47;;;;;;;28.38;15.00;;;;;;;12.63;80.22;96506.22;4986583;28;20038;-74
2021/09/21 10:09:15;;;;;;;28.92;16.02;;;;;;;12.53;78.71;96500.91;4990686;28;20038;-75
2021/09/21 10:11:43;;;;;;;33.08;15.90;;;;;;;12.79;79.46;96508.94;4995014;28;20035;-75
2021/09/21 10:14:09;;;;;;;29.30;14.73;;;;;;;13.34;75.62;96499.56;4985179;28;20053;-74
2021/09/21 10:16:54;;;;;;;26.58;14.30;;;;;;;13.32;78.67;96501.66;4990823;28;20046;-76
2021/09/21 10:19:22;;;;;;;28.08;15.40;;;;;;;13.07;76.59;96509.53;4985860;28;20042;-76
2021/09/21 10:21:49;;;;;;;28.63;15.13;;;;;;;13.02;75.42;96506.91;4993712;28;20073;-76
2021/09/21 10:24:15;;;;;;;27.90;14.85;;;;;;;13.26;74.26;96507.19;4998638;28;20096;-76
2021/09/21 10:26:43;;;;;;;28.15;14.85;;;;;;;13.26;75.45;96502.72;4992436;28;20145;-78
2021/09/21 10:29:09;;;;;;;24.33;13.68;;;;;;;13.48;76.73;96493.78;5002770;28;20046;-75
2021/09/21 10:31:38;;;;;;;28.85;14.10;;;;;;;13.63;74.53;96501.72;5003993;28;20486;-76
2021/09/21 10:34:14;;;;;;;27.48;15.05;;;;;;;13.86;72.96;96499.59;4995291;28;20038;-76
2021/09/21 10:36:50;;;;;;;25.98;14.52;;;;;;;13.54;72.05;96502.53;4994637;28;20046;-78
2021/09/21 10:39:17;;;;;;;26.73;13.95;;;;;;;13.75;74.93;96505.94;4988656;28;20384;-75
2021/09/21 10:41:49;;;;;;;25.67;13.70;;;;;;;13.61;74.08;96503.84;4991801;28;20047;-76
2021/09/21 10:44:16;;;;;;;24.88;13.88;;;;;;;13.97;73.99;96497.75;4988177;28;20042;-76
2021/09/21 10:46:53;;;;;;;31.35;14.93;;;;;;;13.89;70.17;96498.28;4988139;28;20237;-77
2021/09/21 10:49:36;;;;;;;29.65;13.68;;;;;;;14.00;70.98;96503.28;4995891;28;20124;-76
2021/09/21 10:52:11;;;;;;;25.83;14.25;;;;;;;14.19;72.50;96502.72;4988882;28;20050;-75
2021/09/21 10:54:38;;;;;;;30.27;14.98;;;;;;;14.19;70.14;96498.25;4987491;28;20050;-76
2021/09/21 10:57:10;;;;;;;27.38;14.25;;;;;;;14.10;71.38;96510.44;4989572;28;20034;-76
2021/09/21 10:59:37;;;;;;;30.27;14.50;;;;;;;13.82;71.35;96514.41;4993696;28;20042;-76
2021/09/21 11:02:09;;;;;;;24.40;14.18;;;;;;;13.99;70.05;96507.00;4981529;28;20124;-75
2021/09/21 11:04:43;;;;;;;25.55;13.85;;;;;;;14.17;70.41;96504.88;4984157;28;20104;-74
2021/09/21 11:07:13;;;;;;;27.17;14.77;;;;;;;13.60;71.27;96512.81;4983437;28;20042;-76
2021/09/21 11:09:41;;;;;;;29.23;14.18;;;;;;;13.74;71.14;96504.38;4976670;28;20057;-80
2021/09/21 11:12:12;;;;;;;25.33;13.70;;;;;;;14.44;69.29;96496.59;4987952;28;20421;-79
2021/09/21 11:14:43;;;;;;;25.13;13.57;;;;;;;14.95;69.59;96492.97;4989801;28;20150;-77
2021/09/21 11:17:11;;;;;;;27.27;13.32;;;;;;;14.82;67.90;96501.53;4988846;28;20035;-77
2021/09/21 11:19:38;;;;;;;20.58;12.10;;;;;;;15.17;69.06;96499.75;4975961;28;20042;-77
2021/09/21 11:22:09;;;;;;;24.98;13.32;;;;;;;15.47;64.33;96503.28;4982899;28;20046;-77
2021/09/21 11:24:38;;;;;;;26.52;13.25;;;;;;;15.40;63.49;96504.38;4973725;28;20101;-77
2021/09/21 11:27:09;;;;;;;23.75;13.13;;;;;;;15.51;63.88;96504.31;4983117;28;20125;-75
2021/09/21 11:29:39;;;;;;;24.63;12.60;;;;;;;15.35;64.36;96504.41;4978723;28;20058;-75
2021/09/21 11:32:20;;;;;;;28.23;13.20;;;;;;;15.17;66.99;96510.34;4986083;28;20504;-75
2021/09/21 11:34:58;;;;;;;24.98;13.63;;;;;;;14.73;64.38;96507.38;4976858;28;20121;-74
2021/09/21 11:37:24;;;;;;;23.70;13.45;;;;;;;14.88;65.43;96495.13;4972730;28;20058;-75